Barkly West, South Africa
Current Conditions -  °F | °C
As of 1:00 AM on Sunday 21 Dec 2014 (Local Time) from FAKM Reporting Station
NA  
Wind Chill: 75°   Ceiling: NA
Heat Index: 75°   Visibility: NA
Dew Point: 21°   Wind: 13mph
Humidity: 13%   Direction: 240°WSW
Pressure: 29.97"   Gusts: NA
Location:  28.53°S, 24.53°E
Report Text: FAKM 202300Z AUTO 24011KT 24/M06 Q1015
Loading
Personal Weather Stations






























Interactive Weather Map New forecast layout! Learn more

10-Day Weather Forecast

Advertisements
Track Severe Weather on mobile